Terminal Aerodrome Forecast
Issued by NWS

Home | Current Version | Previous Version | Graphics & Text | Print | Product List | Glossary On
Versions: 1 2 3 4 5 6 7 8 9 10 11 12 13
000
FTUS43 KGRB 180520
TAFMTW
TAF
KMTW 180520Z 1806/1906 26012G19KT P6SM SKC WS018/29040KT
     FM181000 25008KT P6SM SCT250 WS018/29035KT
     FM181600 25008KT P6SM SCT150
     FM190000 25007KT P6SM SCT150=

USA.gov is the U.S. government's official web portal to all federal, state and local government web resources and services.